sensor_id;sensor_type;location;lat;lon;timestamp;P1;durP1;ratioP1;P2;durP2;ratioP2
44486;SDS011;30191;50.908;6.962;2022-09-09T00:04:37;4.85;;;0.65;;
44486;SDS011;30191;50.908;6.962;2022-09-09T00:07:10;2.67;;;0.63;;
44486;SDS011;30191;50.908;6.962;2022-09-09T00:09:46;2.53;;;0.80;;
44486;SDS011;30191;50.908;6.962;2022-09-09T00:12:20;1.85;;;0.60;;
44486;SDS011;30191;50.908;6.962;2022-09-09T00:15:05;2.92;;;0.60;;
44486;SDS011;30191;50.908;6.962;2022-09-09T00:17:58;2.85;;;0.70;;
44486;SDS011;30191;50.908;6.962;2022-09-09T00:20:48;3.08;;;0.65;;
44486;SDS011;30191;50.908;6.962;2022-09-09T00:23:24;1.75;;;0.63;;
44486;SDS011;30191;50.908;6.962;2022-09-09T00:28:36;2.88;;;0.50;;
44486;SDS011;30191;50.908;6.962;2022-09-09T00:31:14;2.33;;;0.80;;
44486;SDS011;30191;50.908;6.962;2022-09-09T00:33:43;1.85;;;0.55;;
44486;SDS011;30191;50.908;6.962;2022-09-09T00:36:13;1.45;;;0.50;;
44486;SDS011;30191;50.908;6.962;2022-09-09T00:38:48;3.03;;;0.70;;
44486;SDS011;30191;50.908;6.962;2022-09-09T00:44:20;2.35;;;0.70;;
44486;SDS011;30191;50.908;6.962;2022-09-09T00:56:25;1.63;;;0.50;;
44486;SDS011;30191;50.908;6.962;2022-09-09T00:58:25;1.77;;;0.55;;
44486;SDS011;30191;50.908;6.962;2022-09-09T01:00:54;1.92;;;0.68;;
44486;SDS011;30191;50.908;6.962;2022-09-09T01:03:34;1.63;;;0.60;;
44486;SDS011;30191;50.908;6.962;2022-09-09T01:11:03;2.63;;;0.70;;
44486;SDS011;30191;50.908;6.962;2022-09-09T01:13:30;2.28;;;0.80;;
44486;SDS011;30191;50.908;6.962;2022-09-09T01:15:59;3.78;;;0.73;;
44486;SDS011;30191;50.908;6.962;2022-09-09T01:18:26;1.38;;;0.60;;
44486;SDS011;30191;50.908;6.962;2022-09-09T01:23:49;3.63;;;0.80;;
44486;SDS011;30191;50.908;6.962;2022-09-09T01:26:43;2.40;;;0.60;;
44486;SDS011;30191;50.908;6.962;2022-09-09T01:29:17;3.03;;;0.55;;
44486;SDS011;30191;50.908;6.962;2022-09-09T01:31:53;1.17;;;0.40;;
44486;SDS011;30191;50.908;6.962;2022-09-09T01:34:19;1.08;;;0.45;;
44486;SDS011;30191;50.908;6.962;2022-09-09T01:37:07;2.00;;;0.50;;
44486;SDS011;30191;50.908;6.962;2022-09-09T01:39:36;3.17;;;0.50;;
44486;SDS011;30191;50.908;6.962;2022-09-09T01:42:05;4.20;;;0.60;;
44486;SDS011;30191;50.908;6.962;2022-09-09T01:44:33;3.00;;;0.43;;
44486;SDS011;30191;50.908;6.962;2022-09-09T01:47:00;2.58;;;0.50;;
44486;SDS011;30191;50.908;6.962;2022-09-09T01:49:26;2.25;;;0.60;;
44486;SDS011;30191;50.908;6.962;2022-09-09T01:51:53;2.38;;;0.80;;
44486;SDS011;30191;50.908;6.962;2022-09-09T01:54:20;3.13;;;0.60;;
44486;SDS011;30191;50.908;6.962;2022-09-09T02:02:19;4.75;;;0.57;;
44486;SDS011;30191;50.908;6.962;2022-09-09T02:10:01;3.78;;;0.90;;
44486;SDS011;30191;50.908;6.962;2022-09-09T02:12:36;3.80;;;0.68;;
44486;SDS011;30191;50.908;6.962;2022-09-09T02:15:29;3.10;;;0.52;;
44486;SDS011;30191;50.908;6.962;2022-09-09T02:17:59;1.70;;;0.70;;
44486;SDS011;30191;50.908;6.962;2022-09-09T02:20:29;3.25;;;0.70;;
44486;SDS011;30191;50.908;6.962;2022-09-09T02:22:58;4.25;;;0.80;;
44486;SDS011;30191;50.908;6.962;2022-09-09T02:25:26;4.20;;;0.98;;
44486;SDS011;30191;50.908;6.962;2022-09-09T02:27:54;2.95;;;0.80;;
44486;SDS011;30191;50.908;6.962;2022-09-09T02:30:23;2.53;;;0.60;;
44486;SDS011;30191;50.908;6.962;2022-09-09T02:32:48;4.70;;;1.00;;
44486;SDS011;30191;50.908;6.962;2022-09-09T02:35:19;3.75;;;1.00;;
44486;SDS011;30191;50.908;6.962;2022-09-09T02:37:47;3.35;;;0.85;;
44486;SDS011;30191;50.908;6.962;2022-09-09T02:40:15;3.67;;;0.60;;
44486;SDS011;30191;50.908;6.962;2022-09-09T02:42:41;5.07;;;0.90;;
44486;SDS011;30191;50.908;6.962;2022-09-09T02:45:09;6.50;;;0.90;;
44486;SDS011;30191;50.908;6.962;2022-09-09T02:50:35;2.67;;;0.88;;
44486;SDS011;30191;50.908;6.962;2022-09-09T02:58:13;3.35;;;0.60;;
44486;SDS011;30191;50.908;6.962;2022-09-09T03:00:48;3.80;;;0.70;;
44486;SDS011;30191;50.908;6.962;2022-09-09T03:03:15;4.80;;;0.90;;
44486;SDS011;30191;50.908;6.962;2022-09-09T03:05:43;2.83;;;0.90;;
44486;SDS011;30191;50.908;6.962;2022-09-09T03:08:09;1.73;;;0.70;;
44486;SDS011;30191;50.908;6.962;2022-09-09T03:10:35;2.13;;;0.85;;
44486;SDS011;30191;50.908;6.962;2022-09-09T03:13:02;2.20;;;0.73;;
44486;SDS011;30191;50.908;6.962;2022-09-09T03:15:29;3.70;;;1.05;;
44486;SDS011;30191;50.908;6.962;2022-09-09T03:17:56;4.30;;;0.82;;
44486;SDS011;30191;50.908;6.962;2022-09-09T03:20:25;4.05;;;0.80;;
44486;SDS011;30191;50.908;6.962;2022-09-09T03:22:53;3.60;;;0.80;;
44486;SDS011;30191;50.908;6.962;2022-09-09T03:25:19;5.22;;;0.70;;
44486;SDS011;30191;50.908;6.962;2022-09-09T03:27:46;4.97;;;0.65;;
44486;SDS011;30191;50.908;6.962;2022-09-09T03:30:11;5.25;;;0.70;;
44486;SDS011;30191;50.908;6.962;2022-09-09T03:32:37;3.47;;;0.77;;
44486;SDS011;30191;50.908;6.962;2022-09-09T03:35:03;5.22;;;0.90;;
44486;SDS011;30191;50.908;6.962;2022-09-09T03:37:29;5.60;;;1.00;;
44486;SDS011;30191;50.908;6.962;2022-09-09T03:39:56;5.30;;;1.08;;
44486;SDS011;30191;50.908;6.962;2022-09-09T03:42:22;3.60;;;0.82;;
44486;SDS011;30191;50.908;6.962;2022-09-09T03:44:48;3.90;;;0.80;;
44486;SDS011;30191;50.908;6.962;2022-09-09T03:47:24;3.40;;;0.77;;
44486;SDS011;30191;50.908;6.962;2022-09-09T03:49:50;4.70;;;0.80;;
44486;SDS011;30191;50.908;6.962;2022-09-09T03:52:16;6.80;;;0.98;;
44486;SDS011;30191;50.908;6.962;2022-09-09T03:54:42;10.38;;;1.40;;
44486;SDS011;30191;50.908;6.962;2022-09-09T03:57:09;3.20;;;0.80;;
44486;SDS011;30191;50.908;6.962;2022-09-09T03:59:35;5.93;;;0.95;;
44486;SDS011;30191;50.908;6.962;2022-09-09T04:02:01;4.30;;;1.20;;
44486;SDS011;30191;50.908;6.962;2022-09-09T04:04:28;4.93;;;1.05;;
44486;SDS011;30191;50.908;6.962;2022-09-09T04:06:53;5.57;;;1.10;;
44486;SDS011;30191;50.908;6.962;2022-09-09T04:09:19;5.05;;;0.88;;
44486;SDS011;30191;50.908;6.962;2022-09-09T04:11:45;3.95;;;1.00;;
44486;SDS011;30191;50.908;6.962;2022-09-09T04:14:11;3.88;;;0.80;;
44486;SDS011;30191;50.908;6.962;2022-09-09T04:16:37;3.13;;;0.90;;
44486;SDS011;30191;50.908;6.962;2022-09-09T04:19:04;3.58;;;1.08;;
44486;SDS011;30191;50.908;6.962;2022-09-09T04:21:31;4.13;;;0.90;;
44486;SDS011;30191;50.908;6.962;2022-09-09T04:23:57;4.55;;;1.00;;
44486;SDS011;30191;50.908;6.962;2022-09-09T04:26:23;3.45;;;0.85;;
44486;SDS011;30191;50.908;6.962;2022-09-09T04:28:48;4.22;;;1.00;;
44486;SDS011;30191;50.908;6.962;2022-09-09T04:31:15;3.58;;;0.90;;
44486;SDS011;30191;50.908;6.962;2022-09-09T04:33:43;4.22;;;0.80;;
44486;SDS011;30191;50.908;6.962;2022-09-09T04:36:09;6.13;;;1.05;;
44486;SDS011;30191;50.908;6.962;2022-09-09T04:38:35;5.25;;;1.02;;
44486;SDS011;30191;50.908;6.962;2022-09-09T04:41:01;3.70;;;0.88;;
44486;SDS011;30191;50.908;6.962;2022-09-09T04:43:26;7.55;;;1.15;;
44486;SDS011;30191;50.908;6.962;2022-09-09T04:45:52;3.15;;;0.95;;
44486;SDS011;30191;50.908;6.962;2022-09-09T04:48:18;5.50;;;1.33;;
44486;SDS011;30191;50.908;6.962;2022-09-09T04:50:53;3.05;;;1.00;;
44486;SDS011;30191;50.908;6.962;2022-09-09T04:53:23;3.78;;;1.25;;
44486;SDS011;30191;50.908;6.962;2022-09-09T04:55:48;5.53;;;1.52;;
44486;SDS011;30191;50.908;6.962;2022-09-09T04:58:14;5.57;;;1.00;;
44486;SDS011;30191;50.908;6.962;2022-09-09T05:00:40;6.47;;;1.60;;
44486;SDS011;30191;50.908;6.962;2022-09-09T05:03:06;7.45;;;1.60;;
44486;SDS011;30191;50.908;6.962;2022-09-09T05:05:33;4.97;;;1.10;;
44486;SDS011;30191;50.908;6.962;2022-09-09T05:08:00;3.53;;;1.00;;
44486;SDS011;30191;50.908;6.962;2022-09-09T05:10:27;5.03;;;1.02;;
44486;SDS011;30191;50.908;6.962;2022-09-09T05:12:53;4.43;;;0.95;;
44486;SDS011;30191;50.908;6.962;2022-09-09T05:15:19;5.57;;;1.25;;
44486;SDS011;30191;50.908;6.962;2022-09-09T05:17:46;5.63;;;1.08;;
44486;SDS011;30191;50.908;6.962;2022-09-09T05:20:11;6.10;;;1.15;;
44486;SDS011;30191;50.908;6.962;2022-09-09T05:22:37;6.53;;;1.13;;
44486;SDS011;30191;50.908;6.962;2022-09-09T05:25:03;4.82;;;1.20;;
44486;SDS011;30191;50.908;6.962;2022-09-09T05:27:29;4.90;;;1.30;;
44486;SDS011;30191;50.908;6.962;2022-09-09T05:29:57;3.90;;;0.95;;
44486;SDS011;30191;50.908;6.962;2022-09-09T05:32:23;5.38;;;1.23;;
44486;SDS011;30191;50.908;6.962;2022-09-09T05:34:49;3.70;;;1.00;;
44486;SDS011;30191;50.908;6.962;2022-09-09T05:37:15;5.70;;;1.15;;
44486;SDS011;30191;50.908;6.962;2022-09-09T05:39:41;5.75;;;1.30;;
44486;SDS011;30191;50.908;6.962;2022-09-09T05:42:07;8.88;;;1.10;;
44486;SDS011;30191;50.908;6.962;2022-09-09T05:44:32;4.53;;;1.10;;
44486;SDS011;30191;50.908;6.962;2022-09-09T05:46:58;2.10;;;0.70;;
44486;SDS011;30191;50.908;6.962;2022-09-09T05:49:24;3.13;;;1.00;;
44486;SDS011;30191;50.908;6.962;2022-09-09T05:51:50;3.92;;;0.90;;
44486;SDS011;30191;50.908;6.962;2022-09-09T05:54:16;4.22;;;1.13;;
44486;SDS011;30191;50.908;6.962;2022-09-09T05:56:42;4.20;;;0.90;;
44486;SDS011;30191;50.908;6.962;2022-09-09T05:59:08;5.68;;;0.93;;
44486;SDS011;30191;50.908;6.962;2022-09-09T06:01:35;2.13;;;0.80;;
44486;SDS011;30191;50.908;6.962;2022-09-09T06:04:05;3.97;;;0.70;;
44486;SDS011;30191;50.908;6.962;2022-09-09T06:06:32;4.38;;;1.00;;
44486;SDS011;30191;50.908;6.962;2022-09-09T06:09:04;2.95;;;1.25;;
44486;SDS011;30191;50.908;6.962;2022-09-09T06:11:34;5.07;;;1.10;;
44486;SDS011;30191;50.908;6.962;2022-09-09T06:14:01;5.60;;;1.30;;
44486;SDS011;30191;50.908;6.962;2022-09-09T06:16:27;4.85;;;1.50;;
44486;SDS011;30191;50.908;6.962;2022-09-09T06:18:54;5.50;;;1.13;;
44486;SDS011;30191;50.908;6.962;2022-09-09T06:21:22;5.50;;;1.20;;
44486;SDS011;30191;50.908;6.962;2022-09-09T06:23:49;3.55;;;1.83;;
44486;SDS011;30191;50.908;6.962;2022-09-09T06:26:26;6.45;;;1.20;;
44486;SDS011;30191;50.908;6.962;2022-09-09T06:28:56;6.32;;;1.13;;
44486;SDS011;30191;50.908;6.962;2022-09-09T06:31:24;4.60;;;1.00;;
44486;SDS011;30191;50.908;6.962;2022-09-09T06:33:52;6.10;;;1.10;;
44486;SDS011;30191;50.908;6.962;2022-09-09T06:36:41;5.75;;;1.15;;
44486;SDS011;30191;50.908;6.962;2022-09-09T06:39:06;6.05;;;1.13;;
44486;SDS011;30191;50.908;6.962;2022-09-09T06:41:33;4.53;;;1.08;;
44486;SDS011;30191;50.908;6.962;2022-09-09T06:43:59;6.15;;;0.80;;
44486;SDS011;30191;50.908;6.962;2022-09-09T06:46:26;5.32;;;1.40;;
44486;SDS011;30191;50.908;6.962;2022-09-09T06:48:55;5.53;;;0.93;;
44486;SDS011;30191;50.908;6.962;2022-09-09T06:51:23;4.15;;;0.95;;
44486;SDS011;30191;50.908;6.962;2022-09-09T06:53:51;3.00;;;1.02;;
44486;SDS011;30191;50.908;6.962;2022-09-09T06:56:42;4.72;;;0.98;;
44486;SDS011;30191;50.908;6.962;2022-09-09T06:59:08;5.20;;;0.85;;
44486;SDS011;30191;50.908;6.962;2022-09-09T07:01:35;4.22;;;1.30;;
44486;SDS011;30191;50.908;6.962;2022-09-09T07:04:03;4.72;;;1.17;;
44486;SDS011;30191;50.908;6.962;2022-09-09T07:06:33;5.88;;;1.23;;
44486;SDS011;30191;50.908;6.962;2022-09-09T07:09:03;6.03;;;1.70;;
44486;SDS011;30191;50.908;6.962;2022-09-09T07:11:32;6.88;;;2.15;;
44486;SDS011;30191;50.908;6.962;2022-09-09T07:13:59;6.22;;;1.30;;
44486;SDS011;30191;50.908;6.962;2022-09-09T07:16:26;4.50;;;0.95;;
44486;SDS011;30191;50.908;6.962;2022-09-09T07:18:52;6.43;;;1.33;;
44486;SDS011;30191;50.908;6.962;2022-09-09T07:21:22;2.83;;;0.80;;
44486;SDS011;30191;50.908;6.962;2022-09-09T07:23:49;4.00;;;1.00;;
44486;SDS011;30191;50.908;6.962;2022-09-09T07:26:16;5.00;;;0.85;;
44486;SDS011;30191;50.908;6.962;2022-09-09T07:28:46;3.20;;;0.93;;
44486;SDS011;30191;50.908;6.962;2022-09-09T07:31:16;5.15;;;0.90;;
44486;SDS011;30191;50.908;6.962;2022-09-09T07:33:44;7.68;;;1.15;;
44486;SDS011;30191;50.908;6.962;2022-09-09T07:36:13;3.55;;;0.85;;
44486;SDS011;30191;50.908;6.962;2022-09-09T07:38:47;4.43;;;0.90;;
44486;SDS011;30191;50.908;6.962;2022-09-09T07:41:21;4.68;;;1.35;;
44486;SDS011;30191;50.908;6.962;2022-09-09T07:43:50;6.15;;;0.90;;
44486;SDS011;30191;50.908;6.962;2022-09-09T07:46:17;4.43;;;0.98;;
44486;SDS011;30191;50.908;6.962;2022-09-09T07:48:47;5.63;;;1.02;;
44486;SDS011;30191;50.908;6.962;2022-09-09T07:51:16;5.07;;;1.25;;
44486;SDS011;30191;50.908;6.962;2022-09-09T07:53:44;7.28;;;0.90;;
44486;SDS011;30191;50.908;6.962;2022-09-09T07:56:15;4.22;;;1.15;;
44486;SDS011;30191;50.908;6.962;2022-09-09T07:58:45;6.55;;;0.93;;
44486;SDS011;30191;50.908;6.962;2022-09-09T08:01:13;5.55;;;1.23;;
44486;SDS011;30191;50.908;6.962;2022-09-09T08:03:43;5.15;;;0.90;;
44486;SDS011;30191;50.908;6.962;2022-09-09T08:06:09;4.95;;;1.08;;
44486;SDS011;30191;50.908;6.962;2022-09-09T08:08:37;8.10;;;1.30;;
44486;SDS011;30191;50.908;6.962;2022-09-09T08:11:11;8.18;;;1.13;;
44486;SDS011;30191;50.908;6.962;2022-09-09T08:13:39;6.30;;;1.20;;
44486;SDS011;30191;50.908;6.962;2022-09-09T08:16:09;4.72;;;0.90;;
44486;SDS011;30191;50.908;6.962;2022-09-09T08:18:40;5.75;;;1.30;;
44486;SDS011;30191;50.908;6.962;2022-09-09T08:21:13;5.07;;;1.52;;
44486;SDS011;30191;50.908;6.962;2022-09-09T08:23:42;5.43;;;1.05;;
44486;SDS011;30191;50.908;6.962;2022-09-09T08:26:20;4.50;;;0.90;;
44486;SDS011;30191;50.908;6.962;2022-09-09T08:28:51;4.35;;;1.15;;
44486;SDS011;30191;50.908;6.962;2022-09-09T08:31:20;7.60;;;1.20;;
44486;SDS011;30191;50.908;6.962;2022-09-09T08:33:53;5.47;;;1.02;;
44486;SDS011;30191;50.908;6.962;2022-09-09T08:36:20;5.30;;;0.88;;
44486;SDS011;30191;50.908;6.962;2022-09-09T08:38:48;3.72;;;1.20;;
44486;SDS011;30191;50.908;6.962;2022-09-09T08:44:23;3.97;;;1.20;;
44486;SDS011;30191;50.908;6.962;2022-09-09T08:55:37;4.68;;;1.00;;
44486;SDS011;30191;50.908;6.962;2022-09-09T09:01:09;6.07;;;1.15;;
44486;SDS011;30191;50.908;6.962;2022-09-09T09:04:07;3.00;;;0.70;;
44486;SDS011;30191;50.908;6.962;2022-09-09T09:09:22;6.80;;;1.20;;
44486;SDS011;30191;50.908;6.962;2022-09-09T09:11:55;3.75;;;0.70;;
44486;SDS011;30191;50.908;6.962;2022-09-09T09:14:30;4.65;;;0.88;;
44486;SDS011;30191;50.908;6.962;2022-09-09T09:19:44;7.75;;;1.05;;
44486;SDS011;30191;50.908;6.962;2022-09-09T09:25:10;2.03;;;0.80;;
44486;SDS011;30191;50.908;6.962;2022-09-09T09:27:58;2.15;;;0.75;;
44486;SDS011;30191;50.908;6.962;2022-09-09T09:30:38;2.72;;;0.68;;
44486;SDS011;30191;50.908;6.962;2022-09-09T09:33:15;5.40;;;1.00;;
44486;SDS011;30191;50.908;6.962;2022-09-09T09:35:48;3.97;;;0.70;;
44486;SDS011;30191;50.908;6.962;2022-09-09T09:38:16;3.60;;;0.55;;
44486;SDS011;30191;50.908;6.962;2022-09-09T09:40:51;2.47;;;0.60;;
44486;SDS011;30191;50.908;6.962;2022-09-09T09:43:32;4.88;;;0.85;;
44486;SDS011;30191;50.908;6.962;2022-09-09T09:46:00;3.00;;;0.70;;
44486;SDS011;30191;50.908;6.962;2022-09-09T09:48:28;4.97;;;0.93;;
44486;SDS011;30191;50.908;6.962;2022-09-09T09:50:55;3.42;;;0.60;;
44486;SDS011;30191;50.908;6.962;2022-09-09T09:53:36;2.70;;;0.60;;
44486;SDS011;30191;50.908;6.962;2022-09-09T09:56:04;5.35;;;0.70;;
44486;SDS011;30191;50.908;6.962;2022-09-09T09:58:48;2.55;;;0.60;;
44486;SDS011;30191;50.908;6.962;2022-09-09T10:01:23;3.17;;;0.70;;
44486;SDS011;30191;50.908;6.962;2022-09-09T10:03:53;2.92;;;0.70;;
44486;SDS011;30191;50.908;6.962;2022-09-09T10:06:29;3.53;;;0.70;;
44486;SDS011;30191;50.908;6.962;2022-09-09T10:08:59;2.85;;;0.80;;
44486;SDS011;30191;50.908;6.962;2022-09-09T10:14:24;2.88;;;0.65;;
44486;SDS011;30191;50.908;6.962;2022-09-09T10:19:35;2.28;;;0.68;;
44486;SDS011;30191;50.908;6.962;2022-09-09T10:22:04;3.55;;;0.60;;
44486;SDS011;30191;50.908;6.962;2022-09-09T10:30:20;3.83;;;0.57;;
44486;SDS011;30191;50.908;6.962;2022-09-09T10:35:52;2.83;;;0.60;;
44486;SDS011;30191;50.908;6.962;2022-09-09T10:39:03;3.25;;;0.70;;
44486;SDS011;30191;50.908;6.962;2022-09-09T10:55:38;4.40;;;0.60;;
44486;SDS011;30191;50.908;6.962;2022-09-09T10:58:10;1.67;;;0.40;;
44486;SDS011;30191;50.908;6.962;2022-09-09T11:00:47;8.65;;;0.93;;
44486;SDS011;30191;50.908;6.962;2022-09-09T11:03:17;5.05;;;0.60;;
44486;SDS011;30191;50.908;6.962;2022-09-09T11:05:51;8.65;;;0.85;;
44486;SDS011;30191;50.908;6.962;2022-09-09T11:08:26;3.03;;;0.55;;
44486;SDS011;30191;50.908;6.962;2022-09-09T11:13:46;4.15;;;0.70;;
44486;SDS011;30191;50.908;6.962;2022-09-09T11:16:27;4.53;;;0.90;;
44486;SDS011;30191;50.908;6.962;2022-09-09T11:24:44;7.03;;;0.90;;
44486;SDS011;30191;50.908;6.962;2022-09-09T11:27:23;5.22;;;0.52;;
44486;SDS011;30191;50.908;6.962;2022-09-09T11:35:25;4.15;;;0.63;;
44486;SDS011;30191;50.908;6.962;2022-09-09T11:38:19;2.85;;;0.65;;
44486;SDS011;30191;50.908;6.962;2022-09-09T11:41:05;4.43;;;0.60;;
44486;SDS011;30191;50.908;6.962;2022-09-09T11:43:52;4.32;;;0.70;;
44486;SDS011;30191;50.908;6.962;2022-09-09T11:46:22;2.80;;;0.73;;
44486;SDS011;30191;50.908;6.962;2022-09-09T11:49:04;3.28;;;0.50;;
44486;SDS011;30191;50.908;6.962;2022-09-09T11:51:32;2.53;;;0.60;;
44486;SDS011;30191;50.908;6.962;2022-09-09T11:56:57;5.03;;;0.60;;
44486;SDS011;30191;50.908;6.962;2022-09-09T11:59:26;3.20;;;0.52;;
44486;SDS011;30191;50.908;6.962;2022-09-09T12:01:55;2.45;;;0.57;;
44486;SDS011;30191;50.908;6.962;2022-09-09T12:07:00;3.55;;;0.55;;
44486;SDS011;30191;50.908;6.962;2022-09-09T12:11:53;5.57;;;0.70;;
44486;SDS011;30191;50.908;6.962;2022-09-09T12:17:41;3.70;;;0.70;;
44486;SDS011;30191;50.908;6.962;2022-09-09T12:27:58;3.25;;;0.77;;
44486;SDS011;30191;50.908;6.962;2022-09-09T12:30:34;1.75;;;0.40;;
44486;SDS011;30191;50.908;6.962;2022-09-09T12:33:33;2.63;;;0.70;;
44486;SDS011;30191;50.908;6.962;2022-09-09T12:36:00;5.32;;;0.65;;
44486;SDS011;30191;50.908;6.962;2022-09-09T12:38:32;3.10;;;0.52;;
44486;SDS011;30191;50.908;6.962;2022-09-09T12:41:01;2.47;;;0.65;;
44486;SDS011;30191;50.908;6.962;2022-09-09T12:43:27;3.20;;;0.60;;
44486;SDS011;30191;50.908;6.962;2022-09-09T12:45:57;3.38;;;0.80;;
44486;SDS011;30191;50.908;6.962;2022-09-09T12:48:32;2.28;;;0.63;;
44486;SDS011;30191;50.908;6.962;2022-09-09T12:51:05;2.65;;;0.52;;
44486;SDS011;30191;50.908;6.962;2022-09-09T12:53:40;2.17;;;0.70;;
44486;SDS011;30191;50.908;6.962;2022-09-09T12:56:07;2.22;;;0.73;;
44486;SDS011;30191;50.908;6.962;2022-09-09T12:58:44;2.28;;;0.70;;
44486;SDS011;30191;50.908;6.962;2022-09-09T13:01:18;5.05;;;0.98;;
44486;SDS011;30191;50.908;6.962;2022-09-09T13:03:50;3.70;;;0.80;;
44486;SDS011;30191;50.908;6.962;2022-09-09T13:06:23;5.70;;;1.05;;
44486;SDS011;30191;50.908;6.962;2022-09-09T13:08:52;3.80;;;0.70;;
44486;SDS011;30191;50.908;6.962;2022-09-09T13:11:20;4.55;;;0.90;;
44486;SDS011;30191;50.908;6.962;2022-09-09T13:13:54;2.60;;;0.70;;
44486;SDS011;30191;50.908;6.962;2022-09-09T13:18:47;2.97;;;0.70;;
44486;SDS011;30191;50.908;6.962;2022-09-09T13:21:14;3.88;;;0.60;;
44486;SDS011;30191;50.908;6.962;2022-09-09T13:23:40;2.17;;;0.57;;
44486;SDS011;30191;50.908;6.962;2022-09-09T13:26:19;1.05;;;0.38;;
44486;SDS011;30191;50.908;6.962;2022-09-09T13:28:49;2.13;;;0.40;;
44486;SDS011;30191;50.908;6.962;2022-09-09T13:31:19;3.05;;;0.70;;
44486;SDS011;30191;50.908;6.962;2022-09-09T13:33:53;1.05;;;0.30;;
44486;SDS011;30191;50.908;6.962;2022-09-09T13:36:27;2.72;;;0.63;;
44486;SDS011;30191;50.908;6.962;2022-09-09T13:38:55;2.15;;;0.40;;
44486;SDS011;30191;50.908;6.962;2022-09-09T13:41:25;2.30;;;0.35;;
44486;SDS011;30191;50.908;6.962;2022-09-09T13:44:00;1.67;;;0.40;;
44486;SDS011;30191;50.908;6.962;2022-09-09T13:49:01;1.77;;;0.40;;
44486;SDS011;30191;50.908;6.962;2022-09-09T13:51:44;1.50;;;0.32;;
44486;SDS011;30191;50.908;6.962;2022-09-09T13:54:15;1.08;;;0.30;;
44486;SDS011;30191;50.908;6.962;2022-09-09T13:56:42;1.15;;;0.45;;
44486;SDS011;30191;50.908;6.962;2022-09-09T13:59:12;1.75;;;0.38;;
44486;SDS011;30191;50.908;6.962;2022-09-09T14:01:40;1.00;;;0.40;;
44486;SDS011;30191;50.908;6.962;2022-09-09T14:04:06;1.90;;;0.60;;
44486;SDS011;30191;50.908;6.962;2022-09-09T14:06:34;2.50;;;0.55;;
44486;SDS011;30191;50.908;6.962;2022-09-09T14:09:03;2.25;;;0.45;;
44486;SDS011;30191;50.908;6.962;2022-09-09T14:11:29;3.53;;;0.60;;
44486;SDS011;30191;50.908;6.962;2022-09-09T14:13:55;0.90;;;0.50;;
44486;SDS011;30191;50.908;6.962;2022-09-09T14:16:20;1.48;;;0.38;;
44486;SDS011;30191;50.908;6.962;2022-09-09T14:18:46;1.13;;;0.40;;
44486;SDS011;30191;50.908;6.962;2022-09-09T14:21:12;1.45;;;0.35;;
44486;SDS011;30191;50.908;6.962;2022-09-09T14:23:39;1.00;;;0.40;;
44486;SDS011;30191;50.908;6.962;2022-09-09T14:26:05;1.20;;;0.50;;
44486;SDS011;30191;50.908;6.962;2022-09-09T14:28:31;0.85;;;0.32;;
44486;SDS011;30191;50.908;6.962;2022-09-09T14:31:01;2.00;;;0.47;;
44486;SDS011;30191;50.908;6.962;2022-09-09T14:33:29;2.47;;;0.35;;
44486;SDS011;30191;50.908;6.962;2022-09-09T14:36:01;1.23;;;0.30;;
44486;SDS011;30191;50.908;6.962;2022-09-09T14:38:29;0.90;;;0.30;;
44486;SDS011;30191;50.908;6.962;2022-09-09T14:40:55;2.47;;;0.50;;
44486;SDS011;30191;50.908;6.962;2022-09-09T14:43:22;2.42;;;0.85;;
44486;SDS011;30191;50.908;6.962;2022-09-09T14:45:47;4.43;;;0.70;;
44486;SDS011;30191;50.908;6.962;2022-09-09T14:48:14;2.83;;;0.80;;
44486;SDS011;30191;50.908;6.962;2022-09-09T14:50:40;6.63;;;0.73;;
44486;SDS011;30191;50.908;6.962;2022-09-09T14:53:06;3.03;;;0.63;;
44486;SDS011;30191;50.908;6.962;2022-09-09T14:55:33;2.65;;;0.68;;
44486;SDS011;30191;50.908;6.962;2022-09-09T14:57:59;1.70;;;0.60;;
44486;SDS011;30191;50.908;6.962;2022-09-09T15:00:25;3.63;;;0.80;;
44486;SDS011;30191;50.908;6.962;2022-09-09T15:02:52;3.03;;;0.70;;
44486;SDS011;30191;50.908;6.962;2022-09-09T15:05:18;2.72;;;0.80;;
44486;SDS011;30191;50.908;6.962;2022-09-09T15:07:44;2.85;;;0.70;;
44486;SDS011;30191;50.908;6.962;2022-09-09T15:10:10;3.85;;;0.88;;
44486;SDS011;30191;50.908;6.962;2022-09-09T15:12:36;2.85;;;0.70;;
44486;SDS011;30191;50.908;6.962;2022-09-09T15:15:03;3.03;;;0.88;;
44486;SDS011;30191;50.908;6.962;2022-09-09T15:17:29;3.47;;;1.00;;
44486;SDS011;30191;50.908;6.962;2022-09-09T15:19:55;3.35;;;1.00;;
44486;SDS011;30191;50.908;6.962;2022-09-09T15:22:21;3.13;;;0.68;;
44486;SDS011;30191;50.908;6.962;2022-09-09T15:24:47;3.15;;;0.80;;
44486;SDS011;30191;50.908;6.962;2022-09-09T15:27:13;2.45;;;0.50;;
44486;SDS011;30191;50.908;6.962;2022-09-09T15:29:39;4.60;;;0.60;;
44486;SDS011;30191;50.908;6.962;2022-09-09T15:32:06;2.05;;;0.70;;
44486;SDS011;30191;50.908;6.962;2022-09-09T15:34:33;2.42;;;0.60;;
44486;SDS011;30191;50.908;6.962;2022-09-09T15:36:58;3.00;;;0.60;;
44486;SDS011;30191;50.908;6.962;2022-09-09T15:39:27;3.10;;;0.68;;
44486;SDS011;30191;50.908;6.962;2022-09-09T15:41:53;2.25;;;0.70;;
44486;SDS011;30191;50.908;6.962;2022-09-09T15:44:18;0.88;;;0.50;;
44486;SDS011;30191;50.908;6.962;2022-09-09T15:46:45;2.15;;;0.90;;
44486;SDS011;30191;50.908;6.962;2022-09-09T15:49:16;2.35;;;0.68;;
44486;SDS011;30191;50.908;6.962;2022-09-09T15:51:44;1.13;;;0.47;;
44486;SDS011;30191;50.908;6.962;2022-09-09T15:54:13;1.48;;;0.65;;
44486;SDS011;30191;50.908;6.962;2022-09-09T15:56:41;3.78;;;0.50;;
44486;SDS011;30191;50.908;6.962;2022-09-09T15:59:07;1.50;;;0.60;;
44486;SDS011;30191;50.908;6.962;2022-09-09T16:01:33;0.95;;;0.40;;
44486;SDS011;30191;50.908;6.962;2022-09-09T16:04:01;1.70;;;0.40;;
44486;SDS011;30191;50.908;6.962;2022-09-09T16:06:27;1.45;;;0.50;;
44486;SDS011;30191;50.908;6.962;2022-09-09T16:08:54;2.40;;;0.40;;
44486;SDS011;30191;50.908;6.962;2022-09-09T16:11:22;1.73;;;0.50;;
44486;SDS011;30191;50.908;6.962;2022-09-09T16:13:51;3.00;;;0.50;;
44486;SDS011;30191;50.908;6.962;2022-09-09T16:16:18;1.67;;;0.43;;
44486;SDS011;30191;50.908;6.962;2022-09-09T16:18:47;1.45;;;0.40;;
44486;SDS011;30191;50.908;6.962;2022-09-09T16:21:15;2.78;;;0.40;;
44486;SDS011;30191;50.908;6.962;2022-09-09T16:23:44;1.58;;;0.52;;
44486;SDS011;30191;50.908;6.962;2022-09-09T16:26:13;1.88;;;0.32;;
44486;SDS011;30191;50.908;6.962;2022-09-09T16:28:40;2.90;;;0.80;;
44486;SDS011;30191;50.908;6.962;2022-09-09T16:31:06;3.17;;;0.45;;
44486;SDS011;30191;50.908;6.962;2022-09-09T16:33:35;2.75;;;0.40;;
44486;SDS011;30191;50.908;6.962;2022-09-09T16:36:04;2.80;;;0.70;;
44486;SDS011;30191;50.908;6.962;2022-09-09T16:38:38;2.05;;;0.70;;
44486;SDS011;30191;50.908;6.962;2022-09-09T16:41:05;3.20;;;1.17;;
44486;SDS011;30191;50.908;6.962;2022-09-09T16:43:35;2.97;;;0.60;;
44486;SDS011;30191;50.908;6.962;2022-09-09T16:46:02;2.63;;;0.50;;
44486;SDS011;30191;50.908;6.962;2022-09-09T16:48:34;1.48;;;0.60;;
44486;SDS011;30191;50.908;6.962;2022-09-09T16:51:01;1.33;;;0.47;;
44486;SDS011;30191;50.908;6.962;2022-09-09T16:53:48;4.97;;;1.08;;
44486;SDS011;30191;50.908;6.962;2022-09-09T16:56:15;2.10;;;0.63;;
44486;SDS011;30191;50.908;6.962;2022-09-09T16:58:44;5.05;;;1.10;;
44486;SDS011;30191;50.908;6.962;2022-09-09T17:01:21;2.90;;;1.08;;
44486;SDS011;30191;50.908;6.962;2022-09-09T17:03:52;3.08;;;1.17;;
44486;SDS011;30191;50.908;6.962;2022-09-09T17:06:18;3.83;;;1.20;;
44486;SDS011;30191;50.908;6.962;2022-09-09T17:08:46;2.50;;;1.00;;
44486;SDS011;30191;50.908;6.962;2022-09-09T17:13:41;3.58;;;1.02;;
44486;SDS011;30191;50.908;6.962;2022-09-09T17:16:08;3.58;;;1.00;;
44486;SDS011;30191;50.908;6.962;2022-09-09T17:18:34;6.38;;;2.08;;
44486;SDS011;30191;50.908;6.962;2022-09-09T17:21:05;3.17;;;0.60;;